sensor_id;sensor_type;location;lat;lon;timestamp;P1;durP1;ratioP1;P2;durP2;ratioP2
24389;SDS011;12510;56.468;-3.004;2023-08-01T00:01:05;0.60;;;0.28;;
24389;SDS011;12510;56.468;-3.004;2023-08-01T00:03:31;0.17;;;0.17;;
24389;SDS011;12510;56.468;-3.004;2023-08-01T00:05:58;0.38;;;0.10;;
24389;SDS011;12510;56.468;-3.004;2023-08-01T00:08:24;0.10;;;0.10;;
24389;SDS011;12510;56.468;-3.004;2023-08-01T00:10:51;0.90;;;0.10;;
24389;SDS011;12510;56.468;-3.004;2023-08-01T00:13:17;0.20;;;0.20;;
24389;SDS011;12510;56.468;-3.004;2023-08-01T00:15:43;0.10;;;0.10;;
24389;SDS011;12510;56.468;-3.004;2023-08-01T00:18:10;0.20;;;0.20;;
24389;SDS011;12510;56.468;-3.004;2023-08-01T00:20:36;0.20;;;0.20;;
24389;SDS011;12510;56.468;-3.004;2023-08-01T00:23:03;0.25;;;0.10;;
24389;SDS011;12510;56.468;-3.004;2023-08-01T00:25:29;0.13;;;0.10;;
24389;SDS011;12510;56.468;-3.004;2023-08-01T00:27:56;0.10;;;0.10;;
24389;SDS011;12510;56.468;-3.004;2023-08-01T00:30:22;0.10;;;0.10;;
24389;SDS011;12510;56.468;-3.004;2023-08-01T00:32:48;1.08;;;0.22;;
24389;SDS011;12510;56.468;-3.004;2023-08-01T00:35:15;0.10;;;0.10;;
24389;SDS011;12510;56.468;-3.004;2023-08-01T00:37:42;0.35;;;0.22;;
24389;SDS011;12510;56.468;-3.004;2023-08-01T00:43:16;1.10;;;0.20;;
24389;SDS011;12510;56.468;-3.004;2023-08-01T00:45:43;0.45;;;0.20;;
24389;SDS011;12510;56.468;-3.004;2023-08-01T00:48:12;0.10;;;0.10;;
24389;SDS011;12510;56.468;-3.004;2023-08-01T00:50:38;0.10;;;0.10;;
24389;SDS011;12510;56.468;-3.004;2023-08-01T00:53:06;0.93;;;0.20;;
24389;SDS011;12510;56.468;-3.004;2023-08-01T00:55:32;0.50;;;0.20;;
24389;SDS011;12510;56.468;-3.004;2023-08-01T00:58:00;0.17;;;0.17;;
24389;SDS011;12510;56.468;-3.004;2023-08-01T01:00:26;0.30;;;0.20;;
24389;SDS011;12510;56.468;-3.004;2023-08-01T01:02:52;0.10;;;0.10;;
24389;SDS011;12510;56.468;-3.004;2023-08-01T01:05:19;0.10;;;0.10;;
24389;SDS011;12510;56.468;-3.004;2023-08-01T01:07:48;0.10;;;0.10;;
24389;SDS011;12510;56.468;-3.004;2023-08-01T01:10:16;0.32;;;0.20;;
24389;SDS011;12510;56.468;-3.004;2023-08-01T01:12:42;0.30;;;0.30;;
24389;SDS011;12510;56.468;-3.004;2023-08-01T01:15:09;1.45;;;0.20;;
24389;SDS011;12510;56.468;-3.004;2023-08-01T01:17:35;0.20;;;0.10;;
24389;SDS011;12510;56.468;-3.004;2023-08-01T01:20:02;0.10;;;0.10;;
24389;SDS011;12510;56.468;-3.004;2023-08-01T01:22:28;1.15;;;0.30;;
24389;SDS011;12510;56.468;-3.004;2023-08-01T01:24:56;0.15;;;0.13;;
24389;SDS011;12510;56.468;-3.004;2023-08-01T01:27:24;0.38;;;0.20;;
24389;SDS011;12510;56.468;-3.004;2023-08-01T01:29:51;0.50;;;0.30;;
24389;SDS011;12510;56.468;-3.004;2023-08-01T01:32:20;0.10;;;0.10;;
24389;SDS011;12510;56.468;-3.004;2023-08-01T01:34:46;0.43;;;0.40;;
24389;SDS011;12510;56.468;-3.004;2023-08-01T01:37:13;0.10;;;0.10;;
24389;SDS011;12510;56.468;-3.004;2023-08-01T01:39:39;1.38;;;0.20;;
24389;SDS011;12510;56.468;-3.004;2023-08-01T01:42:06;0.35;;;0.20;;
24389;SDS011;12510;56.468;-3.004;2023-08-01T01:44:33;0.40;;;0.30;;
24389;SDS011;12510;56.468;-3.004;2023-08-01T01:47:00;0.47;;;0.47;;
24389;SDS011;12510;56.468;-3.004;2023-08-01T01:49:26;0.73;;;0.20;;
24389;SDS011;12510;56.468;-3.004;2023-08-01T01:51:53;0.20;;;0.20;;
24389;SDS011;12510;56.468;-3.004;2023-08-01T01:54:19;0.40;;;0.25;;
24389;SDS011;12510;56.468;-3.004;2023-08-01T01:56:46;0.10;;;0.10;;
24389;SDS011;12510;56.468;-3.004;2023-08-01T01:59:12;0.10;;;0.10;;
24389;SDS011;12510;56.468;-3.004;2023-08-01T02:01:39;0.55;;;0.50;;
24389;SDS011;12510;56.468;-3.004;2023-08-01T02:04:05;0.65;;;0.10;;
24389;SDS011;12510;56.468;-3.004;2023-08-01T02:06:31;0.20;;;0.20;;
24389;SDS011;12510;56.468;-3.004;2023-08-01T02:08:58;0.40;;;0.22;;
24389;SDS011;12510;56.468;-3.004;2023-08-01T02:11:29;0.25;;;0.17;;
24389;SDS011;12510;56.468;-3.004;2023-08-01T02:13:55;1.38;;;0.20;;
24389;SDS011;12510;56.468;-3.004;2023-08-01T02:16:22;0.20;;;0.10;;
24389;SDS011;12510;56.468;-3.004;2023-08-01T02:18:48;0.10;;;0.10;;
24389;SDS011;12510;56.468;-3.004;2023-08-01T02:21:15;1.08;;;0.30;;
24389;SDS011;12510;56.468;-3.004;2023-08-01T02:23:41;0.30;;;0.20;;
24389;SDS011;12510;56.468;-3.004;2023-08-01T02:26:08;0.10;;;0.10;;
24389;SDS011;12510;56.468;-3.004;2023-08-01T02:28:34;1.25;;;0.10;;
24389;SDS011;12510;56.468;-3.004;2023-08-01T02:31:00;0.10;;;0.10;;
24389;SDS011;12510;56.468;-3.004;2023-08-01T02:33:27;0.10;;;0.10;;
24389;SDS011;12510;56.468;-3.004;2023-08-01T02:35:54;0.65;;;0.10;;
24389;SDS011;12510;56.468;-3.004;2023-08-01T02:38:20;0.40;;;0.17;;
24389;SDS011;12510;56.468;-3.004;2023-08-01T02:40:47;0.10;;;0.10;;
24389;SDS011;12510;56.468;-3.004;2023-08-01T02:43:13;0.63;;;0.20;;
24389;SDS011;12510;56.468;-3.004;2023-08-01T02:45:41;0.10;;;0.10;;
24389;SDS011;12510;56.468;-3.004;2023-08-01T02:48:08;0.95;;;0.20;;
24389;SDS011;12510;56.468;-3.004;2023-08-01T02:50:34;0.52;;;0.28;;
24389;SDS011;12510;56.468;-3.004;2023-08-01T02:53:01;0.93;;;0.40;;
24389;SDS011;12510;56.468;-3.004;2023-08-01T02:55:27;0.20;;;0.20;;
24389;SDS011;12510;56.468;-3.004;2023-08-01T02:57:54;0.20;;;0.20;;
24389;SDS011;12510;56.468;-3.004;2023-08-01T03:00:20;0.55;;;0.20;;
24389;SDS011;12510;56.468;-3.004;2023-08-01T03:02:46;1.20;;;0.30;;
24389;SDS011;12510;56.468;-3.004;2023-08-01T03:05:13;0.40;;;0.30;;
24389;SDS011;12510;56.468;-3.004;2023-08-01T03:07:39;1.05;;;0.30;;
24389;SDS011;12510;56.468;-3.004;2023-08-01T03:10:06;0.28;;;0.28;;
24389;SDS011;12510;56.468;-3.004;2023-08-01T03:12:32;0.80;;;0.50;;
24389;SDS011;12510;56.468;-3.004;2023-08-01T03:14:59;0.20;;;0.20;;
24389;SDS011;12510;56.468;-3.004;2023-08-01T03:17:25;0.52;;;0.30;;
24389;SDS011;12510;56.468;-3.004;2023-08-01T03:19:52;0.30;;;0.30;;
24389;SDS011;12510;56.468;-3.004;2023-08-01T03:22:18;0.47;;;0.30;;
24389;SDS011;12510;56.468;-3.004;2023-08-01T03:24:45;0.73;;;0.43;;
24389;SDS011;12510;56.468;-3.004;2023-08-01T03:27:11;0.45;;;0.32;;
24389;SDS011;12510;56.468;-3.004;2023-08-01T03:29:38;0.82;;;0.43;;
24389;SDS011;12510;56.468;-3.004;2023-08-01T03:32:04;0.40;;;0.40;;
24389;SDS011;12510;56.468;-3.004;2023-08-01T03:34:31;0.85;;;0.40;;
24389;SDS011;12510;56.468;-3.004;2023-08-01T03:36:57;1.65;;;0.95;;
24389;SDS011;12510;56.468;-3.004;2023-08-01T03:39:24;0.52;;;0.40;;
24389;SDS011;12510;56.468;-3.004;2023-08-01T03:41:50;0.70;;;0.60;;
24389;SDS011;12510;56.468;-3.004;2023-08-01T03:44:17;0.95;;;0.40;;
24389;SDS011;12510;56.468;-3.004;2023-08-01T03:46:43;1.17;;;0.50;;
24389;SDS011;12510;56.468;-3.004;2023-08-01T03:49:10;0.30;;;0.30;;
24389;SDS011;12510;56.468;-3.004;2023-08-01T03:51:36;0.93;;;0.30;;
24389;SDS011;12510;56.468;-3.004;2023-08-01T03:54:02;1.38;;;0.45;;
24389;SDS011;12510;56.468;-3.004;2023-08-01T03:56:29;0.60;;;0.40;;
24389;SDS011;12510;56.468;-3.004;2023-08-01T03:58:56;0.30;;;0.30;;
24389;SDS011;12510;56.468;-3.004;2023-08-01T04:01:22;0.30;;;0.30;;
24389;SDS011;12510;56.468;-3.004;2023-08-01T04:03:49;0.40;;;0.30;;
24389;SDS011;12510;56.468;-3.004;2023-08-01T04:06:15;0.70;;;0.47;;
24389;SDS011;12510;56.468;-3.004;2023-08-01T04:08:41;0.68;;;0.50;;
24389;SDS011;12510;56.468;-3.004;2023-08-01T04:11:08;0.32;;;0.30;;
24389;SDS011;12510;56.468;-3.004;2023-08-01T04:13:34;0.85;;;0.57;;
24389;SDS011;12510;56.468;-3.004;2023-08-01T04:16:01;3.13;;;0.57;;
24389;SDS011;12510;56.468;-3.004;2023-08-01T04:18:27;0.85;;;0.50;;
24389;SDS011;12510;56.468;-3.004;2023-08-01T04:20:53;0.95;;;0.40;;
24389;SDS011;12510;56.468;-3.004;2023-08-01T04:23:20;0.77;;;0.60;;
24389;SDS011;12510;56.468;-3.004;2023-08-01T04:25:46;2.85;;;0.60;;
24389;SDS011;12510;56.468;-3.004;2023-08-01T04:28:13;1.00;;;0.50;;
24389;SDS011;12510;56.468;-3.004;2023-08-01T04:30:39;0.95;;;0.63;;
24389;SDS011;12510;56.468;-3.004;2023-08-01T04:33:05;1.10;;;0.50;;
24389;SDS011;12510;56.468;-3.004;2023-08-01T04:35:32;0.52;;;0.50;;
24389;SDS011;12510;56.468;-3.004;2023-08-01T04:37:58;0.70;;;0.70;;
24389;SDS011;12510;56.468;-3.004;2023-08-01T04:40:25;1.35;;;0.65;;
24389;SDS011;12510;56.468;-3.004;2023-08-01T04:42:51;1.10;;;0.80;;
24389;SDS011;12510;56.468;-3.004;2023-08-01T04:45:17;0.43;;;0.43;;
24389;SDS011;12510;56.468;-3.004;2023-08-01T04:47:44;1.25;;;0.85;;
24389;SDS011;12510;56.468;-3.004;2023-08-01T04:50:10;1.85;;;0.57;;
24389;SDS011;12510;56.468;-3.004;2023-08-01T04:52:37;1.98;;;0.93;;
24389;SDS011;12510;56.468;-3.004;2023-08-01T04:55:03;1.23;;;0.65;;
24389;SDS011;12510;56.468;-3.004;2023-08-01T04:57:31;2.65;;;0.93;;
24389;SDS011;12510;56.468;-3.004;2023-08-01T04:59:57;1.15;;;0.63;;
24389;SDS011;12510;56.468;-3.004;2023-08-01T05:02:25;1.17;;;0.70;;
24389;SDS011;12510;56.468;-3.004;2023-08-01T05:04:51;0.50;;;0.50;;
24389;SDS011;12510;56.468;-3.004;2023-08-01T05:07:18;1.60;;;0.80;;
24389;SDS011;12510;56.468;-3.004;2023-08-01T05:09:44;0.77;;;0.77;;
24389;SDS011;12510;56.468;-3.004;2023-08-01T05:12:11;1.35;;;0.63;;
24389;SDS011;12510;56.468;-3.004;2023-08-01T05:14:37;1.00;;;0.75;;
24389;SDS011;12510;56.468;-3.004;2023-08-01T05:17:04;1.73;;;0.65;;
24389;SDS011;12510;56.468;-3.004;2023-08-01T05:19:30;2.25;;;1.00;;
24389;SDS011;12510;56.468;-3.004;2023-08-01T05:21:57;1.52;;;0.68;;
24389;SDS011;12510;56.468;-3.004;2023-08-01T05:24:23;1.20;;;0.63;;
24389;SDS011;12510;56.468;-3.004;2023-08-01T05:26:50;0.95;;;0.50;;
24389;SDS011;12510;56.468;-3.004;2023-08-01T05:29:16;3.50;;;0.88;;
24389;SDS011;12510;56.468;-3.004;2023-08-01T05:31:42;0.85;;;0.68;;
24389;SDS011;12510;56.468;-3.004;2023-08-01T05:34:09;1.23;;;0.57;;
24389;SDS011;12510;56.468;-3.004;2023-08-01T05:36:35;0.98;;;0.70;;
24389;SDS011;12510;56.468;-3.004;2023-08-01T05:39:03;0.93;;;0.45;;
24389;SDS011;12510;56.468;-3.004;2023-08-01T05:41:29;2.08;;;0.60;;
24389;SDS011;12510;56.468;-3.004;2023-08-01T05:43:56;3.42;;;1.15;;
24389;SDS011;12510;56.468;-3.004;2023-08-01T05:46:23;0.65;;;0.40;;
24389;SDS011;12510;56.468;-3.004;2023-08-01T05:48:50;1.02;;;0.70;;
24389;SDS011;12510;56.468;-3.004;2023-08-01T05:51:16;1.48;;;0.68;;
24389;SDS011;12510;56.468;-3.004;2023-08-01T05:53:43;1.58;;;0.77;;
24389;SDS011;12510;56.468;-3.004;2023-08-01T05:56:09;0.65;;;0.50;;
24389;SDS011;12510;56.468;-3.004;2023-08-01T05:58:35;0.90;;;0.60;;
24389;SDS011;12510;56.468;-3.004;2023-08-01T06:01:02;0.82;;;0.60;;
24389;SDS011;12510;56.468;-3.004;2023-08-01T06:03:29;0.95;;;0.57;;
24389;SDS011;12510;56.468;-3.004;2023-08-01T06:05:56;1.05;;;0.80;;
24389;SDS011;12510;56.468;-3.004;2023-08-01T06:08:22;1.65;;;0.57;;
24389;SDS011;12510;56.468;-3.004;2023-08-01T06:10:49;1.90;;;0.50;;
24389;SDS011;12510;56.468;-3.004;2023-08-01T06:13:15;1.85;;;1.10;;
24389;SDS011;12510;56.468;-3.004;2023-08-01T06:15:42;1.77;;;0.95;;
24389;SDS011;12510;56.468;-3.004;2023-08-01T06:18:08;2.42;;;1.10;;
24389;SDS011;12510;56.468;-3.004;2023-08-01T06:20:36;1.48;;;0.98;;
24389;SDS011;12510;56.468;-3.004;2023-08-01T06:23:03;2.25;;;0.90;;
24389;SDS011;12510;56.468;-3.004;2023-08-01T06:25:29;3.40;;;1.23;;
24389;SDS011;12510;56.468;-3.004;2023-08-01T06:27:56;1.67;;;1.02;;
24389;SDS011;12510;56.468;-3.004;2023-08-01T06:30:22;1.05;;;0.90;;
24389;SDS011;12510;56.468;-3.004;2023-08-01T06:32:49;2.80;;;1.48;;
24389;SDS011;12510;56.468;-3.004;2023-08-01T06:35:15;3.17;;;1.38;;
24389;SDS011;12510;56.468;-3.004;2023-08-01T06:37:41;2.97;;;1.50;;
24389;SDS011;12510;56.468;-3.004;2023-08-01T06:40:08;3.58;;;1.55;;
24389;SDS011;12510;56.468;-3.004;2023-08-01T06:42:35;2.85;;;1.00;;
24389;SDS011;12510;56.468;-3.004;2023-08-01T06:45:02;5.07;;;1.75;;
24389;SDS011;12510;56.468;-3.004;2023-08-01T06:47:28;5.53;;;1.73;;
24389;SDS011;12510;56.468;-3.004;2023-08-01T06:49:54;4.03;;;1.52;;
24389;SDS011;12510;56.468;-3.004;2023-08-01T06:52:21;3.30;;;1.10;;
24389;SDS011;12510;56.468;-3.004;2023-08-01T06:54:48;5.63;;;1.77;;
24389;SDS011;12510;56.468;-3.004;2023-08-01T06:57:14;2.90;;;1.17;;
24389;SDS011;12510;56.468;-3.004;2023-08-01T06:59:41;3.85;;;1.23;;
24389;SDS011;12510;56.468;-3.004;2023-08-01T07:02:07;1.85;;;1.20;;
24389;SDS011;12510;56.468;-3.004;2023-08-01T07:04:34;3.72;;;1.50;;
24389;SDS011;12510;56.468;-3.004;2023-08-01T07:07:00;2.28;;;1.40;;
24389;SDS011;12510;56.468;-3.004;2023-08-01T07:09:27;1.50;;;1.00;;
24389;SDS011;12510;56.468;-3.004;2023-08-01T07:11:53;3.75;;;1.55;;
24389;SDS011;12510;56.468;-3.004;2023-08-01T07:14:20;2.63;;;1.10;;
24389;SDS011;12510;56.468;-3.004;2023-08-01T07:16:46;3.35;;;1.20;;
24389;SDS011;12510;56.468;-3.004;2023-08-01T07:19:13;3.90;;;1.40;;
24389;SDS011;12510;56.468;-3.004;2023-08-01T07:21:39;2.42;;;1.08;;
24389;SDS011;12510;56.468;-3.004;2023-08-01T07:24:05;2.65;;;1.05;;
24389;SDS011;12510;56.468;-3.004;2023-08-01T07:26:32;5.30;;;1.40;;
24389;SDS011;12510;56.468;-3.004;2023-08-01T07:28:58;2.72;;;1.38;;
24389;SDS011;12510;56.468;-3.004;2023-08-01T07:31:25;2.70;;;1.33;;
24389;SDS011;12510;56.468;-3.004;2023-08-01T07:33:51;2.90;;;1.30;;
24389;SDS011;12510;56.468;-3.004;2023-08-01T07:36:17;5.05;;;1.75;;
24389;SDS011;12510;56.468;-3.004;2023-08-01T07:38:44;3.97;;;1.25;;
24389;SDS011;12510;56.468;-3.004;2023-08-01T07:41:10;3.72;;;1.52;;
24389;SDS011;12510;56.468;-3.004;2023-08-01T07:43:37;4.28;;;2.10;;
24389;SDS011;12510;56.468;-3.004;2023-08-01T07:46:03;3.20;;;1.48;;
24389;SDS011;12510;56.468;-3.004;2023-08-01T07:48:30;2.28;;;1.38;;
24389;SDS011;12510;56.468;-3.004;2023-08-01T07:50:56;5.10;;;1.80;;
24389;SDS011;12510;56.468;-3.004;2023-08-01T07:53:23;2.15;;;1.20;;
24389;SDS011;12510;56.468;-3.004;2023-08-01T07:55:49;2.95;;;1.10;;
24389;SDS011;12510;56.468;-3.004;2023-08-01T07:58:18;4.00;;;1.60;;
24389;SDS011;12510;56.468;-3.004;2023-08-01T08:00:44;3.17;;;1.50;;
24389;SDS011;12510;56.468;-3.004;2023-08-01T08:03:10;3.13;;;1.63;;
24389;SDS011;12510;56.468;-3.004;2023-08-01T08:05:37;3.53;;;1.33;;
24389;SDS011;12510;56.468;-3.004;2023-08-01T08:08:06;3.60;;;1.60;;
24389;SDS011;12510;56.468;-3.004;2023-08-01T08:10:33;2.67;;;1.80;;
24389;SDS011;12510;56.468;-3.004;2023-08-01T08:12:59;3.63;;;1.33;;
24389;SDS011;12510;56.468;-3.004;2023-08-01T08:15:26;3.67;;;1.42;;
24389;SDS011;12510;56.468;-3.004;2023-08-01T08:17:53;5.28;;;2.03;;
24389;SDS011;12510;56.468;-3.004;2023-08-01T08:20:19;3.92;;;1.50;;
24389;SDS011;12510;56.468;-3.004;2023-08-01T08:22:46;4.05;;;1.35;;
24389;SDS011;12510;56.468;-3.004;2023-08-01T08:25:12;2.63;;;1.63;;
24389;SDS011;12510;56.468;-3.004;2023-08-01T08:27:39;2.25;;;1.38;;
24389;SDS011;12510;56.468;-3.004;2023-08-01T08:30:05;2.47;;;1.20;;
24389;SDS011;12510;56.468;-3.004;2023-08-01T08:32:32;2.17;;;1.27;;
24389;SDS011;12510;56.468;-3.004;2023-08-01T08:34:59;3.08;;;1.33;;
24389;SDS011;12510;56.468;-3.004;2023-08-01T08:37:25;2.08;;;0.98;;
24389;SDS011;12510;56.468;-3.004;2023-08-01T08:39:51;3.40;;;1.52;;
24389;SDS011;12510;56.468;-3.004;2023-08-01T08:42:18;5.82;;;1.23;;
24389;SDS011;12510;56.468;-3.004;2023-08-01T08:44:45;4.15;;;1.63;;
24389;SDS011;12510;56.468;-3.004;2023-08-01T08:47:20;4.10;;;1.75;;
24389;SDS011;12510;56.468;-3.004;2023-08-01T08:49:51;1.95;;;1.20;;
24389;SDS011;12510;56.468;-3.004;2023-08-01T08:52:18;2.65;;;1.23;;
24389;SDS011;12510;56.468;-3.004;2023-08-01T08:54:45;3.13;;;1.75;;
24389;SDS011;12510;56.468;-3.004;2023-08-01T08:57:13;3.30;;;1.38;;
24389;SDS011;12510;56.468;-3.004;2023-08-01T08:59:39;2.85;;;1.40;;
24389;SDS011;12510;56.468;-3.004;2023-08-01T09:02:06;2.28;;;0.95;;
24389;SDS011;12510;56.468;-3.004;2023-08-01T09:04:33;3.53;;;1.35;;
24389;SDS011;12510;56.468;-3.004;2023-08-01T09:07:01;2.83;;;1.30;;
24389;SDS011;12510;56.468;-3.004;2023-08-01T09:09:32;3.45;;;1.65;;
24389;SDS011;12510;56.468;-3.004;2023-08-01T09:12:00;3.88;;;1.58;;
24389;SDS011;12510;56.468;-3.004;2023-08-01T09:14:27;5.10;;;3.10;;
24389;SDS011;12510;56.468;-3.004;2023-08-01T09:16:53;5.82;;;3.13;;
24389;SDS011;12510;56.468;-3.004;2023-08-01T09:19:23;3.38;;;2.38;;
24389;SDS011;12510;56.468;-3.004;2023-08-01T09:21:51;5.88;;;3.72;;
24389;SDS011;12510;56.468;-3.004;2023-08-01T09:24:18;4.20;;;2.80;;
24389;SDS011;12510;56.468;-3.004;2023-08-01T09:26:45;2.65;;;1.75;;
24389;SDS011;12510;56.468;-3.004;2023-08-01T09:29:15;4.47;;;2.67;;
24389;SDS011;12510;56.468;-3.004;2023-08-01T09:31:42;8.43;;;4.15;;
24389;SDS011;12510;56.468;-3.004;2023-08-01T09:34:20;8.23;;;5.30;;
24389;SDS011;12510;56.468;-3.004;2023-08-01T09:36:56;3.45;;;2.22;;
24389;SDS011;12510;56.468;-3.004;2023-08-01T09:39:24;3.05;;;1.20;;
24389;SDS011;12510;56.468;-3.004;2023-08-01T09:41:58;5.43;;;3.03;;
24389;SDS011;12510;56.468;-3.004;2023-08-01T09:44:26;4.95;;;3.20;;
24389;SDS011;12510;56.468;-3.004;2023-08-01T09:51:50;1.77;;;1.30;;
24389;SDS011;12510;56.468;-3.004;2023-08-01T09:54:17;2.47;;;1.42;;
24389;SDS011;12510;56.468;-3.004;2023-08-01T09:56:44;2.20;;;1.13;;
24389;SDS011;12510;56.468;-3.004;2023-08-01T09:59:11;5.75;;;1.83;;
24389;SDS011;12510;56.468;-3.004;2023-08-01T10:01:42;3.47;;;1.40;;
24389;SDS011;12510;56.468;-3.004;2023-08-01T10:04:11;2.47;;;1.40;;
24389;SDS011;12510;56.468;-3.004;2023-08-01T10:06:38;1.85;;;1.10;;
24389;SDS011;12510;56.468;-3.004;2023-08-01T10:09:10;3.17;;;1.20;;
24389;SDS011;12510;56.468;-3.004;2023-08-01T10:11:37;3.67;;;1.33;;
24389;SDS011;12510;56.468;-3.004;2023-08-01T10:14:06;1.40;;;1.05;;
24389;SDS011;12510;56.468;-3.004;2023-08-01T10:16:33;1.88;;;0.90;;
24389;SDS011;12510;56.468;-3.004;2023-08-01T10:19:02;2.05;;;1.10;;
24389;SDS011;12510;56.468;-3.004;2023-08-01T10:23:58;2.78;;;0.93;;
24389;SDS011;12510;56.468;-3.004;2023-08-01T10:26:26;3.08;;;1.58;;
24389;SDS011;12510;56.468;-3.004;2023-08-01T10:28:53;2.58;;;1.15;;
24389;SDS011;12510;56.468;-3.004;2023-08-01T10:31:20;1.85;;;0.90;;
24389;SDS011;12510;56.468;-3.004;2023-08-01T10:33:48;1.73;;;0.88;;
24389;SDS011;12510;56.468;-3.004;2023-08-01T10:36:19;3.85;;;1.10;;
24389;SDS011;12510;56.468;-3.004;2023-08-01T10:41:26;3.53;;;1.00;;
24389;SDS011;12510;56.468;-3.004;2023-08-01T10:44:09;1.88;;;1.10;;
24389;SDS011;12510;56.468;-3.004;2023-08-01T10:46:45;1.70;;;1.00;;
24389;SDS011;12510;56.468;-3.004;2023-08-01T10:49:16;4.47;;;2.03;;
24389;SDS011;12510;56.468;-3.004;2023-08-01T10:51:44;2.50;;;1.27;;
24389;SDS011;12510;56.468;-3.004;2023-08-01T10:54:18;1.75;;;1.15;;
24389;SDS011;12510;56.468;-3.004;2023-08-01T10:56:55;3.90;;;1.42;;
24389;SDS011;12510;56.468;-3.004;2023-08-01T10:59:24;2.88;;;1.60;;
24389;SDS011;12510;56.468;-3.004;2023-08-01T11:01:52;2.22;;;1.20;;
24389;SDS011;12510;56.468;-3.004;2023-08-01T11:04:22;3.30;;;1.60;;
24389;SDS011;12510;56.468;-3.004;2023-08-01T11:06:51;1.70;;;1.02;;
24389;SDS011;12510;56.468;-3.004;2023-08-01T11:09:20;4.70;;;1.30;;
24389;SDS011;12510;56.468;-3.004;2023-08-01T11:11:55;2.97;;;1.42;;
24389;SDS011;12510;56.468;-3.004;2023-08-01T11:14:27;4.05;;;1.63;;
24389;SDS011;12510;56.468;-3.004;2023-08-01T11:16:55;3.50;;;1.73;;
24389;SDS011;12510;56.468;-3.004;2023-08-01T11:19:23;1.95;;;1.05;;
24389;SDS011;12510;56.468;-3.004;2023-08-01T11:21:50;1.63;;;0.90;;
24389;SDS011;12510;56.468;-3.004;2023-08-01T11:24:18;4.07;;;1.30;;
24389;SDS011;12510;56.468;-3.004;2023-08-01T11:26:49;2.88;;;1.02;;
24389;SDS011;12510;56.468;-3.004;2023-08-01T11:29:17;3.58;;;1.52;;
24389;SDS011;12510;56.468;-3.004;2023-08-01T11:34:21;1.77;;;1.00;;
24389;SDS011;12510;56.468;-3.004;2023-08-01T11:36:48;1.83;;;1.17;;
24389;SDS011;12510;56.468;-3.004;2023-08-01T11:39:15;2.05;;;0.98;;
24389;SDS011;12510;56.468;-3.004;2023-08-01T11:41:43;2.63;;;1.17;;
24389;SDS011;12510;56.468;-3.004;2023-08-01T11:44:10;2.33;;;1.25;;
24389;SDS011;12510;56.468;-3.004;2023-08-01T11:46:38;3.15;;;1.63;;
24389;SDS011;12510;56.468;-3.004;2023-08-01T11:49:07;2.83;;;1.00;;
24389;SDS011;12510;56.468;-3.004;2023-08-01T11:51:40;2.85;;;1.08;;
24389;SDS011;12510;56.468;-3.004;2023-08-01T11:54:09;3.05;;;1.25;;
24389;SDS011;12510;56.468;-3.004;2023-08-01T11:56:37;2.30;;;1.13;;
24389;SDS011;12510;56.468;-3.004;2023-08-01T11:59:11;3.28;;;1.33;;
24389;SDS011;12510;56.468;-3.004;2023-08-01T12:01:42;1.55;;;0.82;;
24389;SDS011;12510;56.468;-3.004;2023-08-01T12:04:10;1.80;;;0.90;;
24389;SDS011;12510;56.468;-3.004;2023-08-01T12:06:37;2.25;;;0.98;;
24389;SDS011;12510;56.468;-3.004;2023-08-01T12:09:11;2.53;;;1.23;;
24389;SDS011;12510;56.468;-3.004;2023-08-01T12:11:39;1.95;;;0.80;;
24389;SDS011;12510;56.468;-3.004;2023-08-01T12:14:08;1.95;;;1.00;;
24389;SDS011;12510;56.468;-3.004;2023-08-01T12:16:36;3.22;;;1.02;;
24389;SDS011;12510;56.468;-3.004;2023-08-01T12:19:16;4.25;;;1.50;;
24389;SDS011;12510;56.468;-3.004;2023-08-01T12:21:44;2.25;;;1.80;;
24389;SDS011;12510;56.468;-3.004;2023-08-01T12:24:10;3.17;;;1.65;;
24389;SDS011;12510;56.468;-3.004;2023-08-01T12:26:37;2.65;;;1.38;;
24389;SDS011;12510;56.468;-3.004;2023-08-01T12:29:03;2.53;;;1.30;;
24389;SDS011;12510;56.468;-3.004;2023-08-01T12:31:30;1.67;;;0.88;;
24389;SDS011;12510;56.468;-3.004;2023-08-01T12:33:56;4.78;;;1.10;;
24389;SDS011;12510;56.468;-3.004;2023-08-01T12:36:23;3.70;;;1.23;;
24389;SDS011;12510;56.468;-3.004;2023-08-01T12:38:49;2.38;;;1.10;;
24389;SDS011;12510;56.468;-3.004;2023-08-01T12:41:16;1.77;;;1.10;;
24389;SDS011;12510;56.468;-3.004;2023-08-01T12:43:42;2.40;;;0.90;;
24389;SDS011;12510;56.468;-3.004;2023-08-01T12:46:09;3.15;;;1.23;;
24389;SDS011;12510;56.468;-3.004;2023-08-01T12:48:35;4.65;;;1.50;;
24389;SDS011;12510;56.468;-3.004;2023-08-01T12:51:02;3.42;;;1.67;;
24389;SDS011;12510;56.468;-3.004;2023-08-01T12:53:28;2.58;;;1.23;;
24389;SDS011;12510;56.468;-3.004;2023-08-01T12:56:00;3.00;;;1.10;;
24389;SDS011;12510;56.468;-3.004;2023-08-01T12:58:27;4.32;;;1.10;;
24389;SDS011;12510;56.468;-3.004;2023-08-01T13:00:53;2.72;;;1.30;;
24389;SDS011;12510;56.468;-3.004;2023-08-01T13:03:20;3.45;;;1.02;;
24389;SDS011;12510;56.468;-3.004;2023-08-01T13:05:46;1.92;;;0.77;;
24389;SDS011;12510;56.468;-3.004;2023-08-01T13:08:13;2.20;;;1.15;;
24389;SDS011;12510;56.468;-3.004;2023-08-01T13:10:39;5.90;;;1.88;;
24389;SDS011;12510;56.468;-3.004;2023-08-01T13:13:06;1.80;;;1.05;;
24389;SDS011;12510;56.468;-3.004;2023-08-01T13:15:32;1.75;;;1.27;;
24389;SDS011;12510;56.468;-3.004;2023-08-01T13:17:59;2.45;;;1.42;;
24389;SDS011;12510;56.468;-3.004;2023-08-01T13:20:25;3.00;;;1.13;;
24389;SDS011;12510;56.468;-3.004;2023-08-01T13:22:52;1.67;;;0.88;;
24389;SDS011;12510;56.468;-3.004;2023-08-01T13:25:18;2.28;;;1.00;;
24389;SDS011;12510;56.468;-3.004;2023-08-01T13:27:45;3.55;;;1.00;;
24389;SDS011;12510;56.468;-3.004;2023-08-01T13:30:12;2.88;;;1.10;;
24389;SDS011;12510;56.468;-3.004;2023-08-01T13:32:44;2.55;;;0.90;;
24389;SDS011;12510;56.468;-3.004;2023-08-01T13:35:11;3.90;;;1.38;;
24389;SDS011;12510;56.468;-3.004;2023-08-01T13:37:37;3.33;;;1.58;;
24389;SDS011;12510;56.468;-3.004;2023-08-01T13:40:04;1.40;;;0.90;;
24389;SDS011;12510;56.468;-3.004;2023-08-01T13:42:31;1.30;;;1.08;;
24389;SDS011;12510;56.468;-3.004;2023-08-01T13:44:58;3.10;;;1.17;;
24389;SDS011;12510;56.468;-3.004;2023-08-01T13:47:25;3.03;;;1.20;;
24389;SDS011;12510;56.468;-3.004;2023-08-01T13:49:51;2.70;;;1.30;;
24389;SDS011;12510;56.468;-3.004;2023-08-01T13:52:18;3.25;;;1.30;;
24389;SDS011;12510;56.468;-3.004;2023-08-01T13:54:44;2.60;;;1.50;;
24389;SDS011;12510;56.468;-3.004;2023-08-01T13:57:11;2.88;;;1.23;;
24389;SDS011;12510;56.468;-3.004;2023-08-01T13:59:37;3.88;;;1.40;;
24389;SDS011;12510;56.468;-3.004;2023-08-01T14:02:04;1.92;;;1.20;;
24389;SDS011;12510;56.468;-3.004;2023-08-01T14:04:30;1.73;;;1.25;;
24389;SDS011;12510;56.468;-3.004;2023-08-01T14:06:57;2.90;;;1.30;;
24389;SDS011;12510;56.468;-3.004;2023-08-01T14:09:23;2.70;;;0.80;;
24389;SDS011;12510;56.468;-3.004;2023-08-01T14:11:50;3.25;;;1.30;;
24389;SDS011;12510;56.468;-3.004;2023-08-01T14:14:16;2.67;;;1.48;;
24389;SDS011;12510;56.468;-3.004;2023-08-01T14:16:43;2.72;;;0.93;;
24389;SDS011;12510;56.468;-3.004;2023-08-01T14:19:09;1.67;;;0.90;;
24389;SDS011;12510;56.468;-3.004;2023-08-01T14:21:36;1.55;;;0.95;;
24389;SDS011;12510;56.468;-3.004;2023-08-01T14:24:02;3.88;;;2.03;;
24389;SDS011;12510;56.468;-3.004;2023-08-01T14:26:29;2.15;;;1.10;;
24389;SDS011;12510;56.468;-3.004;2023-08-01T14:28:55;1.73;;;0.82;;
24389;SDS011;12510;56.468;-3.004;2023-08-01T14:31:22;3.75;;;0.95;;
24389;SDS011;12510;56.468;-3.004;2023-08-01T14:33:48;3.42;;;1.30;;
24389;SDS011;12510;56.468;-3.004;2023-08-01T14:36:15;2.33;;;1.02;;
24389;SDS011;12510;56.468;-3.004;2023-08-01T14:38:41;2.95;;;1.00;;
24389;SDS011;12510;56.468;-3.004;2023-08-01T14:41:07;1.65;;;0.80;;
24389;SDS011;12510;56.468;-3.004;2023-08-01T14:43:34;1.17;;;0.88;;
24389;SDS011;12510;56.468;-3.004;2023-08-01T14:46:01;2.17;;;0.90;;
24389;SDS011;12510;56.468;-3.004;2023-08-01T14:48:28;3.65;;;1.38;;